Shin-oh Maru — JG5594 — position and weather

sailwx.info

Track history (hours):
 
Tides and Currents Weather Stations Pressure Air Temp Water Temp Dewpoint Dewpoint Depression Visibility Wind Speed Wind Dir Waves Ship Positions

Shin-oh Maru

Last reported at 2017-Mar-25 16:06 UTC. Time now 2017-Mar-28 17:57 UTC.
Position N 35°10' E 139°45'.

Length 161 m; draft 6.8 m.

Type: Cargo ship. MMSI: 431100859.

Date/timePositionNaut miles runAvg speedWind from/ knotsBaromVisibWave heightAir tempDewpointWater temp
2017-Mar-25 16:06N 35°10' E 139°45'712.8
2017-Mar-25 15:33N 35°17' E 139°45'1414.0
2017-Mar-25 14:34N 35°30' E 139°51'9 8.5
2017-Mar-25 13:33N 35°38' E 139°46'0 0.0
2017-Mar-25 12:33N 35°38' E 139°46'0 0.0
2017-Mar-25 11:33N 35°38' E 139°46'0 0.0
2017-Mar-25 10:30N 35°38' E 139°46'0 0.0
2017-Mar-25 09:33N 35°38' E 139°46'3 2.6
2017-Mar-25 08:33N 35°35' E 139°47'1313.5
2017-Mar-25 07:33N 35°22' E 139°45'1212.0
2017-Mar-25 06:33N 35°10' E 139°47'  
2017-Mar-22 16:30N 34°56' E 139°44'1718.0
2017-Mar-22 15:33N 35°13' E 139°46'1312.8
2017-Mar-22 14:34N 35°25' E 139°45'1212.4
2017-Mar-22 13:33N 35°38' E 139°46'0 0.1
2017-Mar-22 12:32N 35°38' E 139°46'0 0.0
2017-Mar-22 11:32N 35°38' E 139°46'0 0.0
2017-Mar-22 10:32N 35°38' E 139°46'0 0.0
2017-Mar-22 09:32N 35°38' E 139°46'1 1.0
2017-Mar-22 08:33N 35°37' E 139°46'1313.2
2017-Mar-22 07:33N 35°24' E 139°46'1211.8
2017-Mar-22 06:34N 35°12' E 139°47'1817.5
2017-Mar-22 05:32N 34°54' E 139°46'3416.5
2017-Mar-22 03:29N 35°04' E 140°25'  
2017-Mar-18 18:09N 34°56' E 140°10'1517.5
2017-Mar-18 17:18N 34°51' E 139°53'1316.7
2017-Mar-18 16:33N 35°00' E 139°42'1716.6
2017-Mar-18 15:33N 35°17' E 139°45'1414.0
2017-Mar-18 14:33N 35°30' E 139°51'9 8.8
2017-Mar-18 13:33N 35°38' E 139°46'0 0.0
2017-Mar-18 12:32N 35°38' E 139°46'0 0.0
2017-Mar-18 11:32N 35°38' E 139°46'0 0.0
2017-Mar-18 10:29N 35°38' E 139°46'0 0.0
2017-Mar-18 09:32N 35°38' E 139°46'0 0.0
2017-Mar-18 08:32N 35°38' E 139°46'1010.5
2017-Mar-18 07:33N 35°28' E 139°51'1312.9
2017-Mar-18 06:33N 35°16' E 139°47'1616.5
2017-Mar-18 05:33N 34°60' E 139°43'  
2017-Mar-15 18:17N 34°51' E 139°52'1216.3
2017-Mar-15 17:33N 34°60' E 139°42'1716.8
2017-Mar-15 16:33N 35°17' E 139°45'  
Track history (hours):
 
Tides and Currents Weather Stations Pressure Air Temp Water Temp Dewpoint Dewpoint Depression Visibility Wind Speed Wind Dir Waves Ship Positions

Shin-oh Maru

Last reported at 2017-Mar-25 16:06 UTC. Time now 2017-Mar-28 17:57 UTC.
Position N 35°10' E 139°45'.

Length 161 m; draft 6.8 m.

Type: Cargo ship. MMSI: 431100859.

Date/timePositionNaut miles runAvg speedWind from/ knotsBaromVisibWave heightAir tempDewpointWater temp
2017-Mar-25 16:06N 35°10' E 139°45'712.8
2017-Mar-25 15:33N 35°17' E 139°45'1414.0
2017-Mar-25 14:34N 35°30' E 139°51'9 8.5
2017-Mar-25 13:33N 35°38' E 139°46'0 0.0
2017-Mar-25 12:33N 35°38' E 139°46'0 0.0
2017-Mar-25 11:33N 35°38' E 139°46'0 0.0
2017-Mar-25 10:30N 35°38' E 139°46'0 0.0
2017-Mar-25 09:33N 35°38' E 139°46'3 2.6
2017-Mar-25 08:33N 35°35' E 139°47'1313.5
2017-Mar-25 07:33N 35°22' E 139°45'1212.0
2017-Mar-25 06:33N 35°10' E 139°47'  
2017-Mar-22 16:30N 34°56' E 139°44'1718.0
2017-Mar-22 15:33N 35°13' E 139°46'1312.8
2017-Mar-22 14:34N 35°25' E 139°45'1212.4
2017-Mar-22 13:33N 35°38' E 139°46'0 0.1
2017-Mar-22 12:32N 35°38' E 139°46'0 0.0
2017-Mar-22 11:32N 35°38' E 139°46'0 0.0
2017-Mar-22 10:32N 35°38' E 139°46'0 0.0
2017-Mar-22 09:32N 35°38' E 139°46'1 1.0
2017-Mar-22 08:33N 35°37' E 139°46'1313.2
2017-Mar-22 07:33N 35°24' E 139°46'1211.8
2017-Mar-22 06:34N 35°12' E 139°47'1817.5
2017-Mar-22 05:32N 34°54' E 139°46'3416.5
2017-Mar-22 03:29N 35°04' E 140°25'  
2017-Mar-18 18:09N 34°56' E 140°10'1517.5
2017-Mar-18 17:18N 34°51' E 139°53'1316.7
2017-Mar-18 16:33N 35°00' E 139°42'1716.6
2017-Mar-18 15:33N 35°17' E 139°45'1414.0
2017-Mar-18 14:33N 35°30' E 139°51'9 8.8
2017-Mar-18 13:33N 35°38' E 139°46'0 0.0
2017-Mar-18 12:32N 35°38' E 139°46'0 0.0
2017-Mar-18 11:32N 35°38' E 139°46'0 0.0
2017-Mar-18 10:29N 35°38' E 139°46'0 0.0
2017-Mar-18 09:32N 35°38' E 139°46'0 0.0
2017-Mar-18 08:32N 35°38' E 139°46'1010.5
2017-Mar-18 07:33N 35°28' E 139°51'1312.9
2017-Mar-18 06:33N 35°16' E 139°47'1616.5
2017-Mar-18 05:33N 34°60' E 139°43'  
2017-Mar-15 18:17N 34°51' E 139°52'1216.3
2017-Mar-15 17:33N 34°60' E 139°42'1716.8
2017-Mar-15 16:33N 35°17' E 139°45'  

Dump ship's entire track history